sensor_id;sensor_type;location;lat;lon;timestamp;pressure;altitude;pressure_sealevel;temperature;humidity
8705;BME280;4389;41.932;25.904;2022-07-01T00:00:43;100403.94;;;19.04;85.06
8705;BME280;4389;41.932;25.904;2022-07-01T00:03:10;100395.25;;;19.02;85.43
8705;BME280;4389;41.932;25.904;2022-07-01T00:05:37;100378.84;;;18.91;85.78
8705;BME280;4389;41.932;25.904;2022-07-01T00:08:05;100383.06;;;18.79;85.78
8705;BME280;4389;41.932;25.904;2022-07-01T00:10:32;100377.63;;;18.73;86.47
8705;BME280;4389;41.932;25.904;2022-07-01T00:13:00;100376.47;;;18.82;86.17
8705;BME280;4389;41.932;25.904;2022-07-01T00:15:27;100358.34;;;18.83;86.21
8705;BME280;4389;41.932;25.904;2022-07-01T00:17:54;100365.00;;;18.88;86.44
8705;BME280;4389;41.932;25.904;2022-07-01T00:20:21;100366.53;;;18.76;86.61
8705;BME280;4389;41.932;25.904;2022-07-01T00:22:48;100368.03;;;18.64;87.27
8705;BME280;4389;41.932;25.904;2022-07-01T00:25:15;100353.09;;;18.55;88.08
8705;BME280;4389;41.932;25.904;2022-07-01T00:27:42;100362.63;;;18.57;88.12
8705;BME280;4389;41.932;25.904;2022-07-01T00:30:11;100368.03;;;18.64;87.59
8705;BME280;4389;41.932;25.904;2022-07-01T00:32:38;100373.47;;;18.35;89.59
8705;BME280;4389;41.932;25.904;2022-07-01T00:35:06;100365.53;;;18.27;93.77
8705;BME280;4389;41.932;25.904;2022-07-01T00:37:34;100359.81;;;18.30;94.32
8705;BME280;4389;41.932;25.904;2022-07-01T00:40:01;100360.81;;;18.43;93.92
8705;BME280;4389;41.932;25.904;2022-07-01T00:42:28;100346.97;;;18.40;93.13
8705;BME280;4389;41.932;25.904;2022-07-01T00:44:55;100349.34;;;18.49;91.88
8705;BME280;4389;41.932;25.904;2022-07-01T00:47:24;100353.38;;;18.60;90.75
8705;BME280;4389;41.932;25.904;2022-07-01T00:49:51;100344.78;;;18.50;90.71
8705;BME280;4389;41.932;25.904;2022-07-01T00:52:18;100346.47;;;18.51;90.55
8705;BME280;4389;41.932;25.904;2022-07-01T00:54:45;100353.50;;;18.52;90.66
8705;BME280;4389;41.932;25.904;2022-07-01T00:57:13;100345.19;;;18.47;89.32
8705;BME280;4389;41.932;25.904;2022-07-01T00:59:39;100344.28;;;18.40;88.98
8705;BME280;4389;41.932;25.904;2022-07-01T01:02:07;100356.47;;;18.28;90.16
8705;BME280;4389;41.932;25.904;2022-07-01T01:04:36;100356.47;;;18.28;90.25
8705;BME280;4389;41.932;25.904;2022-07-01T01:07:04;100349.38;;;18.20;90.98
8705;BME280;4389;41.932;25.904;2022-07-01T01:09:30;100343.94;;;18.14;90.93
8705;BME280;4389;41.932;25.904;2022-07-01T01:11:57;100340.63;;;18.12;90.66
8705;BME280;4389;41.932;25.904;2022-07-01T01:14:24;100348.81;;;18.10;90.46
8705;BME280;4389;41.932;25.904;2022-07-01T01:16:51;100338.25;;;17.88;90.23
8705;BME280;4389;41.932;25.904;2022-07-01T01:19:18;100341.19;;;17.93;90.55
8705;BME280;4389;41.932;25.904;2022-07-01T01:21:46;100340.44;;;17.99;90.77
8705;BME280;4389;41.932;25.904;2022-07-01T01:24:13;100347.81;;;18.11;89.99
8705;BME280;4389;41.932;25.904;2022-07-01T01:26:40;100337.06;;;18.26;88.72
8705;BME280;4389;41.932;25.904;2022-07-01T01:29:07;100327.16;;;18.05;89.46
8705;BME280;4389;41.932;25.904;2022-07-01T01:31:34;100318.28;;;18.05;90.59
8705;BME280;4389;41.932;25.904;2022-07-01T01:34:02;100334.53;;;18.03;90.50
8705;BME280;4389;41.932;25.904;2022-07-01T01:36:29;100344.69;;;17.93;90.28
8705;BME280;4389;41.932;25.904;2022-07-01T01:38:57;100333.91;;;17.72;91.73
8705;BME280;4389;41.932;25.904;2022-07-01T01:41:26;100337.50;;;17.65;92.72
8705;BME280;4389;41.932;25.904;2022-07-01T01:43:53;100340.13;;;17.73;92.04
8705;BME280;4389;41.932;25.904;2022-07-01T01:46:20;100347.59;;;17.77;91.56
8705;BME280;4389;41.932;25.904;2022-07-01T01:48:47;100355.88;;;17.82;90.95
8705;BME280;4389;41.932;25.904;2022-07-01T01:51:14;100351.25;;;17.91;90.69
8705;BME280;4389;41.932;25.904;2022-07-01T01:53:41;100354.47;;;17.72;91.17
8705;BME280;4389;41.932;25.904;2022-07-01T01:56:09;100349.31;;;17.56;92.23
8705;BME280;4389;41.932;25.904;2022-07-01T01:58:36;100348.50;;;17.55;92.27
8705;BME280;4389;41.932;25.904;2022-07-01T02:01:08;100357.44;;;17.77;91.85
8705;BME280;4389;41.932;25.904;2022-07-01T02:03:35;100350.81;;;17.73;91.51
8705;BME280;4389;41.932;25.904;2022-07-01T02:06:03;100349.13;;;17.72;91.40
8705;BME280;4389;41.932;25.904;2022-07-01T02:08:30;100352.47;;;17.59;91.30
8705;BME280;4389;41.932;25.904;2022-07-01T02:10:57;100350.16;;;17.56;91.94
8705;BME280;4389;41.932;25.904;2022-07-01T02:13:26;100344.06;;;17.62;91.56
8705;BME280;4389;41.932;25.904;2022-07-01T02:15:53;100358.91;;;17.65;91.76
8705;BME280;4389;41.932;25.904;2022-07-01T02:18:20;100356.91;;;17.67;90.96
8705;BME280;4389;41.932;25.904;2022-07-01T02:20:46;100353.75;;;17.49;91.54
8705;BME280;4389;41.932;25.904;2022-07-01T02:23:14;100354.97;;;17.61;90.64
8705;BME280;4389;41.932;25.904;2022-07-01T02:25:41;100363.72;;;17.55;91.50
8705;BME280;4389;41.932;25.904;2022-07-01T02:28:09;100369.78;;;17.49;91.06
8705;BME280;4389;41.932;25.904;2022-07-01T02:30:38;100372.94;;;17.38;92.62
8705;BME280;4389;41.932;25.904;2022-07-01T02:33:06;100377.09;;;17.18;94.02
8705;BME280;4389;41.932;25.904;2022-07-01T02:35:33;100378.03;;;17.25;93.30
8705;BME280;4389;41.932;25.904;2022-07-01T02:38:01;100377.00;;;17.26;92.98
8705;BME280;4389;41.932;25.904;2022-07-01T02:40:28;100383.72;;;17.22;93.49
8705;BME280;4389;41.932;25.904;2022-07-01T02:42:55;100399.06;;;17.28;92.81
8705;BME280;4389;41.932;25.904;2022-07-01T02:45:21;100385.19;;;17.10;92.69
8705;BME280;4389;41.932;25.904;2022-07-01T02:47:51;100377.09;;;16.95;93.43
8705;BME280;4389;41.932;25.904;2022-07-01T02:50:19;100377.97;;;17.10;93.56
8705;BME280;4389;41.932;25.904;2022-07-01T02:52:46;100402.03;;;17.33;91.83
8705;BME280;4389;41.932;25.904;2022-07-01T02:55:13;100409.03;;;17.34;90.83
8705;BME280;4389;41.932;25.904;2022-07-01T02:57:41;100399.56;;;17.09;91.63
8705;BME280;4389;41.932;25.904;2022-07-01T03:00:11;100395.75;;;17.26;92.36
8705;BME280;4389;41.932;25.904;2022-07-01T03:02:38;100402.75;;;17.64;91.20
8705;BME280;4389;41.932;25.904;2022-07-01T03:05:08;100402.50;;;17.88;88.83
8705;BME280;4389;41.932;25.904;2022-07-01T03:07:36;100415.41;;;18.28;87.24
8705;BME280;4389;41.932;25.904;2022-07-01T03:10:03;100411.25;;;18.54;86.08
8705;BME280;4389;41.932;25.904;2022-07-01T03:12:31;100409.16;;;18.91;84.05
8705;BME280;4389;41.932;25.904;2022-07-01T03:15:01;100408.38;;;19.33;82.34
8705;BME280;4389;41.932;25.904;2022-07-01T03:17:29;100416.22;;;19.89;80.32
8705;BME280;4389;41.932;25.904;2022-07-01T03:19:57;100409.91;;;20.37;77.41
8705;BME280;4389;41.932;25.904;2022-07-01T03:22:28;100413.31;;;20.65;76.01
8705;BME280;4389;41.932;25.904;2022-07-01T03:24:56;100415.81;;;20.80;74.76
8705;BME280;4389;41.932;25.904;2022-07-01T03:27:24;100416.56;;;21.21;73.82
8705;BME280;4389;41.932;25.904;2022-07-01T03:29:51;100419.28;;;21.79;71.20
8705;BME280;4389;41.932;25.904;2022-07-01T03:32:18;100415.44;;;22.19;68.68
8705;BME280;4389;41.932;25.904;2022-07-01T03:34:48;100417.66;;;22.48;67.51
8705;BME280;4389;41.932;25.904;2022-07-01T03:37:16;100416.75;;;22.04;69.19
8705;BME280;4389;41.932;25.904;2022-07-01T03:39:45;100431.00;;;22.81;66.14
8705;BME280;4389;41.932;25.904;2022-07-01T03:42:12;100425.09;;;23.59;63.31
8705;BME280;4389;41.932;25.904;2022-07-01T03:44:39;100429.47;;;23.78;62.04
8705;BME280;4389;41.932;25.904;2022-07-01T03:47:07;100428.28;;;24.70;58.95
8705;BME280;4389;41.932;25.904;2022-07-01T03:49:34;100427.84;;;24.55;59.30
8705;BME280;4389;41.932;25.904;2022-07-01T03:52:01;100438.63;;;24.91;58.59
8705;BME280;4389;41.932;25.904;2022-07-01T03:54:28;100438.59;;;25.50;56.57
8705;BME280;4389;41.932;25.904;2022-07-01T03:57:01;100435.69;;;26.09;54.86
8705;BME280;4389;41.932;25.904;2022-07-01T03:59:29;100432.78;;;26.50;53.87
8705;BME280;4389;41.932;25.904;2022-07-01T04:01:57;100436.38;;;27.18;50.86
8705;BME280;4389;41.932;25.904;2022-07-01T04:04:24;100435.50;;;27.62;49.93
8705;BME280;4389;41.932;25.904;2022-07-01T04:06:52;100441.63;;;28.40;47.61
8705;BME280;4389;41.932;25.904;2022-07-01T04:09:19;100444.59;;;28.60;47.42
8705;BME280;4389;41.932;25.904;2022-07-01T04:11:48;100449.66;;;28.94;46.42
8705;BME280;4389;41.932;25.904;2022-07-01T04:14:16;100452.06;;;28.69;47.42
8705;BME280;4389;41.932;25.904;2022-07-01T04:16:44;100460.09;;;28.81;46.46
8705;BME280;4389;41.932;25.904;2022-07-01T04:19:12;100455.28;;;29.09;46.06
8705;BME280;4389;41.932;25.904;2022-07-01T04:21:40;100457.38;;;29.29;45.06
8705;BME280;4389;41.932;25.904;2022-07-01T04:24:24;100459.63;;;29.32;44.72
8705;BME280;4389;41.932;25.904;2022-07-01T04:26:52;100466.88;;;30.16;43.85
8705;BME280;4389;41.932;25.904;2022-07-01T04:29:21;100465.03;;;30.67;42.72
8705;BME280;4389;41.932;25.904;2022-07-01T04:31:47;100474.59;;;30.24;42.50
8705;BME280;4389;41.932;25.904;2022-07-01T04:34:15;100461.75;;;29.88;44.02
8705;BME280;4389;41.932;25.904;2022-07-01T04:36:43;100466.03;;;29.79;44.19
8705;BME280;4389;41.932;25.904;2022-07-01T04:39:10;100466.47;;;29.66;45.06
8705;BME280;4389;41.932;25.904;2022-07-01T04:41:37;100464.88;;;29.70;44.46
8705;BME280;4389;41.932;25.904;2022-07-01T04:44:23;100465.78;;;30.12;46.28
8705;BME280;4389;41.932;25.904;2022-07-01T04:46:50;100476.06;;;29.68;47.06
8705;BME280;4389;41.932;25.904;2022-07-01T04:49:17;100461.69;;;28.77;49.85
8705;BME280;4389;41.932;25.904;2022-07-01T04:51:44;100464.53;;;28.44;51.27
8705;BME280;4389;41.932;25.904;2022-07-01T04:54:11;100468.09;;;28.44;50.96
8705;BME280;4389;41.932;25.904;2022-07-01T04:56:38;100468.25;;;28.81;50.18
8705;BME280;4389;41.932;25.904;2022-07-01T04:59:05;100474.06;;;28.25;52.79
8705;BME280;4389;41.932;25.904;2022-07-01T05:01:33;100462.63;;;26.73;56.94
8705;BME280;4389;41.932;25.904;2022-07-01T05:04:00;100462.94;;;25.91;60.64
8705;BME280;4389;41.932;25.904;2022-07-01T05:06:27;100455.03;;;24.78;64.40
8705;BME280;4389;41.932;25.904;2022-07-01T05:08:54;100458.94;;;24.46;66.30
8705;BME280;4389;41.932;25.904;2022-07-01T05:11:21;100464.66;;;24.20;67.14
8705;BME280;4389;41.932;25.904;2022-07-01T05:13:48;100455.78;;;24.13;68.14
8705;BME280;4389;41.932;25.904;2022-07-01T05:16:15;100462.03;;;23.89;68.52
8705;BME280;4389;41.932;25.904;2022-07-01T05:18:43;100460.59;;;23.87;69.60
8705;BME280;4389;41.932;25.904;2022-07-01T05:21:28;100463.34;;;23.80;69.49
8705;BME280;4389;41.932;25.904;2022-07-01T05:24:12;100465.50;;;23.96;69.02
8705;BME280;4389;41.932;25.904;2022-07-01T05:26:39;100465.38;;;24.09;68.85
8705;BME280;4389;41.932;25.904;2022-07-01T05:29:06;100460.31;;;24.19;68.60
8705;BME280;4389;41.932;25.904;2022-07-01T05:31:32;100460.31;;;24.55;67.28
8705;BME280;4389;41.932;25.904;2022-07-01T05:34:01;100463.53;;;24.81;66.40
8705;BME280;4389;41.932;25.904;2022-07-01T05:36:28;100463.00;;;24.91;65.63
8705;BME280;4389;41.932;25.904;2022-07-01T05:38:55;100469.41;;;25.26;64.24
8705;BME280;4389;41.932;25.904;2022-07-01T05:41:22;100462.84;;;25.45;63.94
8705;BME280;4389;41.932;25.904;2022-07-01T05:43:48;100457.22;;;25.58;63.26
8705;BME280;4389;41.932;25.904;2022-07-01T05:46:15;100457.56;;;25.61;63.38
8705;BME280;4389;41.932;25.904;2022-07-01T05:48:42;100460.88;;;25.75;62.79
8705;BME280;4389;41.932;25.904;2022-07-01T05:51:10;100463.72;;;25.68;63.29
8705;BME280;4389;41.932;25.904;2022-07-01T05:53:37;100461.31;;;25.90;61.84
8705;BME280;4389;41.932;25.904;2022-07-01T05:56:04;100455.13;;;25.83;61.92
8705;BME280;4389;41.932;25.904;2022-07-01T05:58:32;100465.19;;;26.05;61.69
8705;BME280;4389;41.932;25.904;2022-07-01T06:00:58;100464.56;;;26.38;60.61
8705;BME280;4389;41.932;25.904;2022-07-01T06:03:25;100466.81;;;26.29;60.63
8705;BME280;4389;41.932;25.904;2022-07-01T06:05:52;100466.81;;;26.41;60.83
8705;BME280;4389;41.932;25.904;2022-07-01T06:08:20;100467.72;;;26.46;60.15
8705;BME280;4389;41.932;25.904;2022-07-01T06:10:47;100459.97;;;26.27;60.62
8705;BME280;4389;41.932;25.904;2022-07-01T06:13:14;100458.78;;;26.34;60.93
8705;BME280;4389;41.932;25.904;2022-07-01T06:15:41;100464.78;;;26.59;60.93
8705;BME280;4389;41.932;25.904;2022-07-01T06:18:08;100459.50;;;26.81;60.36
8705;BME280;4389;41.932;25.904;2022-07-01T06:20:35;100456.09;;;26.85;60.08
8705;BME280;4389;41.932;25.904;2022-07-01T06:23:03;100460.97;;;26.72;60.54
8705;BME280;4389;41.932;25.904;2022-07-01T06:25:31;100463.47;;;26.73;61.15
8705;BME280;4389;41.932;25.904;2022-07-01T06:27:58;100453.97;;;26.87;60.31
8705;BME280;4389;41.932;25.904;2022-07-01T06:30:25;100453.47;;;26.90;60.37
8705;BME280;4389;41.932;25.904;2022-07-01T06:32:52;100459.13;;;27.00;60.68
8705;BME280;4389;41.932;25.904;2022-07-01T06:35:19;100457.31;;;27.06;60.21
8705;BME280;4389;41.932;25.904;2022-07-01T06:37:46;100455.31;;;27.01;59.53
8705;BME280;4389;41.932;25.904;2022-07-01T06:40:13;100455.16;;;27.08;59.39
8705;BME280;4389;41.932;25.904;2022-07-01T06:42:41;100459.31;;;27.55;57.84
8705;BME280;4389;41.932;25.904;2022-07-01T06:45:09;100452.78;;;27.56;57.55
8705;BME280;4389;41.932;25.904;2022-07-01T06:47:36;100457.06;;;27.68;57.90
8705;BME280;4389;41.932;25.904;2022-07-01T06:50:04;100454.69;;;27.72;57.67
8705;BME280;4389;41.932;25.904;2022-07-01T06:52:31;100459.75;;;27.80;57.12
8705;BME280;4389;41.932;25.904;2022-07-01T06:54:59;100459.41;;;27.76;56.87
8705;BME280;4389;41.932;25.904;2022-07-01T06:57:26;100457.75;;;28.08;56.29
8705;BME280;4389;41.932;25.904;2022-07-01T06:59:55;100452.53;;;28.23;56.25
8705;BME280;4389;41.932;25.904;2022-07-01T07:02:22;100464.97;;;28.36;55.78
8705;BME280;4389;41.932;25.904;2022-07-01T07:04:48;100454.63;;;28.38;56.21
8705;BME280;4389;41.932;25.904;2022-07-01T07:07:15;100450.44;;;28.47;55.31
8705;BME280;4389;41.932;25.904;2022-07-01T07:09:42;100449.66;;;28.51;54.71
8705;BME280;4389;41.932;25.904;2022-07-01T07:12:09;100447.06;;;28.40;55.14
8705;BME280;4389;41.932;25.904;2022-07-01T07:14:36;100446.06;;;28.46;55.33
8705;BME280;4389;41.932;25.904;2022-07-01T07:17:05;100456.13;;;28.67;53.85
8705;BME280;4389;41.932;25.904;2022-07-01T07:19:32;100455.72;;;28.80;53.74
8705;BME280;4389;41.932;25.904;2022-07-01T07:21:59;100457.94;;;29.04;53.01
8705;BME280;4389;41.932;25.904;2022-07-01T07:24:25;100462.38;;;29.37;52.61
8705;BME280;4389;41.932;25.904;2022-07-01T07:26:52;100453.91;;;29.65;51.31
8705;BME280;4389;41.932;25.904;2022-07-01T07:29:19;100448.38;;;29.55;51.02
8705;BME280;4389;41.932;25.904;2022-07-01T07:31:46;100455.06;;;29.42;51.20
8705;BME280;4389;41.932;25.904;2022-07-01T07:34:14;100458.28;;;29.61;49.91
8705;BME280;4389;41.932;25.904;2022-07-01T07:36:41;100464.00;;;29.96;49.74
8705;BME280;4389;41.932;25.904;2022-07-01T07:39:08;100466.78;;;30.06;48.59
8705;BME280;4389;41.932;25.904;2022-07-01T07:41:35;100466.78;;;30.06;48.80
8705;BME280;4389;41.932;25.904;2022-07-01T07:44:02;100468.84;;;30.20;51.18
8705;BME280;4389;41.932;25.904;2022-07-01T07:46:29;100466.78;;;30.06;50.68
8705;BME280;4389;41.932;25.904;2022-07-01T07:48:56;100466.69;;;29.91;51.28
8705;BME280;4389;41.932;25.904;2022-07-01T07:51:24;100465.09;;;29.95;50.41
8705;BME280;4389;41.932;25.904;2022-07-01T07:53:51;100467.22;;;29.88;51.39
8705;BME280;4389;41.932;25.904;2022-07-01T07:56:18;100460.56;;;29.79;51.29
8705;BME280;4389;41.932;25.904;2022-07-01T07:58:46;100460.13;;;29.92;50.54
8705;BME280;4389;41.932;25.904;2022-07-01T08:01:13;100460.69;;;29.89;50.48
8705;BME280;4389;41.932;25.904;2022-07-01T08:03:40;100465.03;;;29.90;50.10
8705;BME280;4389;41.932;25.904;2022-07-01T08:06:07;100461.31;;;30.06;49.55
8705;BME280;4389;41.932;25.904;2022-07-01T08:08:35;100465.91;;;30.36;49.80
8705;BME280;4389;41.932;25.904;2022-07-01T08:11:02;100459.06;;;30.80;48.16
8705;BME280;4389;41.932;25.904;2022-07-01T08:13:29;100464.28;;;30.97;47.45
8705;BME280;4389;41.932;25.904;2022-07-01T08:15:57;100455.56;;;31.10;46.90
8705;BME280;4389;41.932;25.904;2022-07-01T08:18:24;100459.66;;;30.97;46.81
8705;BME280;4389;41.932;25.904;2022-07-01T08:20:51;100460.69;;;30.81;48.05
8705;BME280;4389;41.932;25.904;2022-07-01T08:23:19;100456.84;;;30.77;48.44
8705;BME280;4389;41.932;25.904;2022-07-01T08:25:48;100451.91;;;30.69;48.81
8705;BME280;4389;41.932;25.904;2022-07-01T08:28:16;100440.66;;;30.66;48.69
8705;BME280;4389;41.932;25.904;2022-07-01T08:30:43;100445.25;;;30.55;47.75
8705;BME280;4389;41.932;25.904;2022-07-01T08:33:11;100444.75;;;30.63;47.93
8705;BME280;4389;41.932;25.904;2022-07-01T08:35:38;100446.44;;;30.69;48.66
8705;BME280;4389;41.932;25.904;2022-07-01T08:38:05;100439.97;;;31.05;47.46
8705;BME280;4389;41.932;25.904;2022-07-01T08:40:33;100448.25;;;31.40;45.96
8705;BME280;4389;41.932;25.904;2022-07-01T08:43:05;100448.00;;;31.42;45.53
8705;BME280;4389;41.932;25.904;2022-07-01T08:45:33;100446.06;;;31.32;46.69
8705;BME280;4389;41.932;25.904;2022-07-01T08:48:02;100446.06;;;31.32;46.54
8705;BME280;4389;41.932;25.904;2022-07-01T08:50:30;100442.50;;;31.27;46.13
8705;BME280;4389;41.932;25.904;2022-07-01T08:52:58;100438.63;;;31.13;45.76
8705;BME280;4389;41.932;25.904;2022-07-01T08:55:25;100445.50;;;31.35;45.62
8705;BME280;4389;41.932;25.904;2022-07-01T08:57:52;100448.53;;;31.59;44.04
8705;BME280;4389;41.932;25.904;2022-07-01T09:00:20;100446.94;;;31.83;43.31
8705;BME280;4389;41.932;25.904;2022-07-01T09:02:55;100447.22;;;31.86;41.49
8705;BME280;4389;41.932;25.904;2022-07-01T09:05:24;100448.28;;;31.90;42.30
8705;BME280;4389;41.932;25.904;2022-07-01T09:07:58;100433.50;;;31.76;42.12
8705;BME280;4389;41.932;25.904;2022-07-01T09:10:25;100443.91;;;31.94;42.21
8705;BME280;4389;41.932;25.904;2022-07-01T09:12:53;100440.91;;;31.91;42.91
8705;BME280;4389;41.932;25.904;2022-07-01T09:15:23;100430.66;;;32.21;42.14
8705;BME280;4389;41.932;25.904;2022-07-01T09:17:55;100439.97;;;32.35;42.00
8705;BME280;4389;41.932;25.904;2022-07-01T09:20:27;100430.63;;;32.46;40.22
8705;BME280;4389;41.932;25.904;2022-07-01T09:22:59;100420.78;;;32.50;39.44
8705;BME280;4389;41.932;25.904;2022-07-01T09:25:27;100424.50;;;32.79;38.17
8705;BME280;4389;41.932;25.904;2022-07-01T09:28:08;100424.84;;;33.06;37.80
8705;BME280;4389;41.932;25.904;2022-07-01T09:30:37;100422.59;;;33.18;37.26
8705;BME280;4389;41.932;25.904;2022-07-01T09:33:06;100422.66;;;33.08;36.89
8705;BME280;4389;41.932;25.904;2022-07-01T09:35:34;100426.94;;;32.81;36.05
8705;BME280;4389;41.932;25.904;2022-07-01T09:38:01;100420.56;;;32.90;37.24
8705;BME280;4389;41.932;25.904;2022-07-01T09:40:46;100419.13;;;33.03;35.46
8705;BME280;4389;41.932;25.904;2022-07-01T09:43:15;100420.38;;;33.20;36.85
8705;BME280;4389;41.932;25.904;2022-07-01T09:45:51;100421.44;;;33.24;37.53
8705;BME280;4389;41.932;25.904;2022-07-01T09:48:18;100422.66;;;33.08;36.84
8705;BME280;4389;41.932;25.904;2022-07-01T09:50:45;100417.72;;;33.05;36.65
8705;BME280;4389;41.932;25.904;2022-07-01T09:53:12;100421.84;;;33.08;37.36
8705;BME280;4389;41.932;25.904;2022-07-01T09:55:39;100408.97;;;33.03;38.17
8705;BME280;4389;41.932;25.904;2022-07-01T09:58:06;100402.78;;;33.26;36.69
8705;BME280;4389;41.932;25.904;2022-07-01T10:00:35;100410.47;;;33.24;37.30
8705;BME280;4389;41.932;25.904;2022-07-01T10:03:05;100399.44;;;33.34;35.76
8705;BME280;4389;41.932;25.904;2022-07-01T10:05:37;100404.94;;;33.34;34.35
8705;BME280;4389;41.932;25.904;2022-07-01T10:08:20;100398.94;;;33.27;34.12
8705;BME280;4389;41.932;25.904;2022-07-01T10:10:50;100389.91;;;33.55;33.69
8705;BME280;4389;41.932;25.904;2022-07-01T10:13:26;100390.41;;;33.62;33.23
8705;BME280;4389;41.932;25.904;2022-07-01T10:15:54;100393.44;;;33.94;33.17
8705;BME280;4389;41.932;25.904;2022-07-01T10:18:25;100398.81;;;34.04;33.58
8705;BME280;4389;41.932;25.904;2022-07-01T10:20:52;100394.59;;;33.88;30.94
8705;BME280;4389;41.932;25.904;2022-07-01T10:23:21;100382.59;;;33.74;31.39
8705;BME280;4389;41.932;25.904;2022-07-01T10:25:49;100388.13;;;33.69;32.16
8705;BME280;4389;41.932;25.904;2022-07-01T10:28:24;100382.38;;;33.71;31.57
8705;BME280;4389;41.932;25.904;2022-07-01T10:30:59;100386.28;;;33.93;31.67
8705;BME280;4389;41.932;25.904;2022-07-01T10:33:34;100377.97;;;33.98;31.38
8705;BME280;4389;41.932;25.904;2022-07-01T10:36:09;100380.72;;;33.98;32.39
8705;BME280;4389;41.932;25.904;2022-07-01T10:39:07;100372.00;;;33.91;33.02
8705;BME280;4389;41.932;25.904;2022-07-01T10:41:36;100373.13;;;34.14;32.84
8705;BME280;4389;41.932;25.904;2022-07-01T10:44:04;100374.94;;;34.00;33.71
8705;BME280;4389;41.932;25.904;2022-07-01T10:46:39;100371.44;;;33.94;33.53
8705;BME280;4389;41.932;25.904;2022-07-01T10:49:11;100370.38;;;33.90;32.69
8705;BME280;4389;41.932;25.904;2022-07-01T10:51:45;100374.78;;;34.15;33.19
8705;BME280;4389;41.932;25.904;2022-07-01T10:54:12;100365.94;;;34.41;32.42
8705;BME280;4389;41.932;25.904;2022-07-01T10:56:39;100359.47;;;34.32;32.35
8705;BME280;4389;41.932;25.904;2022-07-01T10:59:07;100357.31;;;34.29;32.23
8705;BME280;4389;41.932;25.904;2022-07-01T11:01:34;100360.31;;;34.51;31.95
8705;BME280;4389;41.932;25.904;2022-07-01T11:04:02;100354.53;;;34.71;31.56
8705;BME280;4389;41.932;25.904;2022-07-01T11:06:31;100349.63;;;34.68;32.20
8705;BME280;4389;41.932;25.904;2022-07-01T11:09:04;100342.47;;;34.67;31.87
8705;BME280;4389;41.932;25.904;2022-07-01T11:11:31;100336.34;;;34.75;32.11
8705;BME280;4389;41.932;25.904;2022-07-01T11:13:58;100328.31;;;34.79;32.52
8705;BME280;4389;41.932;25.904;2022-07-01T11:16:28;100325.22;;;34.43;32.65
8705;BME280;4389;41.932;25.904;2022-07-01T11:18:56;100329.56;;;34.49;32.52
8705;BME280;4389;41.932;25.904;2022-07-01T11:21:23;100330.78;;;34.80;31.96
8705;BME280;4389;41.932;25.904;2022-07-01T11:23:55;100332.81;;;35.25;32.23
8705;BME280;4389;41.932;25.904;2022-07-01T11:26:23;100325.13;;;35.41;32.45
8705;BME280;4389;41.932;25.904;2022-07-01T11:28:50;100330.22;;;35.15;32.70
8705;BME280;4389;41.932;25.904;2022-07-01T11:31:30;100327.72;;;35.00;32.15
8705;BME280;4389;41.932;25.904;2022-07-01T11:33:57;100329.63;;;35.00;33.07
8705;BME280;4389;41.932;25.904;2022-07-01T11:36:24;100328.31;;;34.79;32.68
8705;BME280;4389;41.932;25.904;2022-07-01T11:39:09;100329.94;;;34.80;32.66
8705;BME280;4389;41.932;25.904;2022-07-01T11:41:54;100312.75;;;35.06;31.63
8705;BME280;4389;41.932;25.904;2022-07-01T11:44:32;100316.00;;;35.40;31.84
8705;BME280;4389;41.932;25.904;2022-07-01T11:46:59;100313.16;;;35.77;31.33
8705;BME280;4389;41.932;25.904;2022-07-01T11:49:27;100311.72;;;35.93;30.64
8705;BME280;4389;41.932;25.904;2022-07-01T11:51:55;100313.06;;;36.09;30.91
8705;BME280;4389;41.932;25.904;2022-07-01T11:54:24;100308.88;;;36.25;30.40
8705;BME280;4389;41.932;25.904;2022-07-01T11:56:51;100305.59;;;36.23;31.07
8705;BME280;4389;41.932;25.904;2022-07-01T11:59:19;100302.44;;;36.16;30.49
8705;BME280;4389;41.932;25.904;2022-07-01T12:01:55;100301.63;;;36.29;31.33
8705;BME280;4389;41.932;25.904;2022-07-01T12:04:22;100293.53;;;36.19;30.35
8705;BME280;4389;41.932;25.904;2022-07-01T12:06:49;100292.13;;;35.68;30.38
8705;BME280;4389;41.932;25.904;2022-07-01T12:09:17;100283.56;;;35.83;30.88
8705;BME280;4389;41.932;25.904;2022-07-01T12:11:48;100281.94;;;35.82;31.75
8705;BME280;4389;41.932;25.904;2022-07-01T12:14:20;100284.56;;;36.27;29.93
8705;BME280;4389;41.932;25.904;2022-07-01T12:16:50;100279.75;;;36.68;29.54
8705;BME280;4389;41.932;25.904;2022-07-01T12:19:18;100290.09;;;36.27;29.62
8705;BME280;4389;41.932;25.904;2022-07-01T12:21:49;100285.97;;;35.84;30.28
8705;BME280;4389;41.932;25.904;2022-07-01T12:24:17;100289.06;;;36.23;30.53
8705;BME280;4389;41.932;25.904;2022-07-01T12:26:50;100290.69;;;36.24;30.63
8705;BME280;4389;41.932;25.904;2022-07-01T12:29:19;100277.00;;;36.19;30.17
8705;BME280;4389;41.932;25.904;2022-07-01T12:31:55;100288.31;;;36.31;30.80
8705;BME280;4389;41.932;25.904;2022-07-01T12:34:21;100282.13;;;35.99;29.48
8705;BME280;4389;41.932;25.904;2022-07-01T12:36:49;100297.00;;;35.84;30.63
8705;BME280;4389;41.932;25.904;2022-07-01T12:39:16;100275.56;;;36.35;29.66
8705;BME280;4389;41.932;25.904;2022-07-01T12:41:50;100276.72;;;36.56;28.91
8705;BME280;4389;41.932;25.904;2022-07-01T12:44:22;100280.91;;;36.89;29.05
8705;BME280;4389;41.932;25.904;2022-07-01T12:46:50;100270.19;;;37.40;28.50
8705;BME280;4389;41.932;25.904;2022-07-01T12:49:21;100277.34;;;37.63;28.73
8705;BME280;4389;41.932;25.904;2022-07-01T12:51:48;100271.13;;;37.27;27.74
8705;BME280;4389;41.932;25.904;2022-07-01T12:54:29;100271.19;;;37.13;27.97
8705;BME280;4389;41.932;25.904;2022-07-01T12:56:57;100272.38;;;36.77;29.26
8705;BME280;4389;41.932;25.904;2022-07-01T12:59:24;100270.09;;;36.44;29.83
8705;BME280;4389;41.932;25.904;2022-07-01T13:01:51;100264.13;;;36.28;30.24
8705;BME280;4389;41.932;25.904;2022-07-01T13:04:26;100262.19;;;36.02;29.24
8705;BME280;4389;41.932;25.904;2022-07-01T13:06:53;100252.28;;;36.14;30.30